sensor_id;sensor_type;location;lat;lon;timestamp;pressure;altitude;pressure_sealevel;temperature;humidity
20424;BME280;10371;49.042;8.002;2022-08-18T00:00:47;99496.09;;;21.20;94.33
20424;BME280;10371;49.042;8.002;2022-08-18T00:01:53;99492.84;;;21.18;94.73
20424;BME280;10371;49.042;8.002;2022-08-18T00:03:04;99503.00;;;21.14;95.29
20424;BME280;10371;49.042;8.002;2022-08-18T00:04:07;99491.19;;;21.10;95.75
20424;BME280;10371;49.042;8.002;2022-08-18T00:05:09;99487.94;;;21.08;96.16
20424;BME280;10371;49.042;8.002;2022-08-18T00:06:12;99487.94;;;21.08;96.95
20424;BME280;10371;49.042;8.002;2022-08-18T00:07:15;99496.69;;;21.09;97.47
20424;BME280;10371;49.042;8.002;2022-08-18T00:08:16;99492.81;;;21.05;97.94
20424;BME280;10371;49.042;8.002;2022-08-18T00:09:17;99500.75;;;21.05;98.86
20424;BME280;10371;49.042;8.002;2022-08-18T00:10:17;99494.25;;;21.01;99.06
20424;BME280;10371;49.042;8.002;2022-08-18T00:11:18;99489.31;;;20.97;99.36
20424;BME280;10371;49.042;8.002;2022-08-18T00:13:26;99497.47;;;20.96;99.79
20424;BME280;10371;49.042;8.002;2022-08-18T00:14:26;99493.38;;;20.93;100.00
20424;BME280;10371;49.042;8.002;2022-08-18T00:15:27;99490.34;;;20.90;100.00
20424;BME280;10371;49.042;8.002;2022-08-18T00:16:27;99483.63;;;20.87;100.00
20424;BME280;10371;49.042;8.002;2022-08-18T00:17:28;99487.66;;;20.83;100.00
20424;BME280;10371;49.042;8.002;2022-08-18T00:18:29;99495.00;;;20.81;100.00
20424;BME280;10371;49.042;8.002;2022-08-18T00:19:29;99490.91;;;20.79;100.00
20424;BME280;10371;49.042;8.002;2022-08-18T00:20:29;99497.41;;;20.76;100.00
20424;BME280;10371;49.042;8.002;2022-08-18T00:21:30;99490.28;;;20.70;100.00
20424;BME280;10371;49.042;8.002;2022-08-18T00:22:30;99497.97;;;20.65;100.00
20424;BME280;10371;49.042;8.002;2022-08-18T00:23:31;99496.31;;;20.64;100.00
20424;BME280;10371;49.042;8.002;2022-08-18T00:24:32;99499.19;;;20.62;100.00
20424;BME280;10371;49.042;8.002;2022-08-18T00:25:32;99503.03;;;20.60;100.00
20424;BME280;10371;49.042;8.002;2022-08-18T00:26:32;99494.88;;;20.55;100.00
20424;BME280;10371;49.042;8.002;2022-08-18T00:27:33;99502.38;;;20.51;100.00
20424;BME280;10371;49.042;8.002;2022-08-18T00:28:33;99506.84;;;20.50;100.00
20424;BME280;10371;49.042;8.002;2022-08-18T00:29:33;99493.56;;;20.44;100.00
20424;BME280;10371;49.042;8.002;2022-08-18T00:30:33;99494.78;;;20.41;100.00
20424;BME280;10371;49.042;8.002;2022-08-18T00:31:34;99496.78;;;20.39;100.00
20424;BME280;10371;49.042;8.002;2022-08-18T00:32:37;99495.56;;;20.35;100.00
20424;BME280;10371;49.042;8.002;2022-08-18T00:33:38;99484.75;;;20.30;100.00
20424;BME280;10371;49.042;8.002;2022-08-18T00:34:38;99490.25;;;20.28;100.00
20424;BME280;10371;49.042;8.002;2022-08-18T00:35:39;99493.06;;;20.27;100.00
20424;BME280;10371;49.042;8.002;2022-08-18T00:36:39;99486.56;;;20.23;100.00
20424;BME280;10371;49.042;8.002;2022-08-18T00:37:41;99491.84;;;20.23;100.00
20424;BME280;10371;49.042;8.002;2022-08-18T00:38:41;99486.09;;;20.19;100.00
20424;BME280;10371;49.042;8.002;2022-08-18T00:39:41;99487.94;;;20.19;100.00
20424;BME280;10371;49.042;8.002;2022-08-18T00:40:45;99490.78;;;20.17;100.00
20424;BME280;10371;49.042;8.002;2022-08-18T00:41:45;99481.59;;;20.13;100.00
20424;BME280;10371;49.042;8.002;2022-08-18T00:42:49;99474.88;;;20.11;100.00
20424;BME280;10371;49.042;8.002;2022-08-18T00:43:50;99480.78;;;20.13;100.00
20424;BME280;10371;49.042;8.002;2022-08-18T00:44:51;99479.53;;;20.08;100.00
20424;BME280;10371;49.042;8.002;2022-08-18T00:45:51;99482.38;;;20.07;100.00
20424;BME280;10371;49.042;8.002;2022-08-18T00:46:52;99485.22;;;20.05;100.00
20424;BME280;10371;49.042;8.002;2022-08-18T00:47:52;99476.69;;;20.03;100.00
20424;BME280;10371;49.042;8.002;2022-08-18T00:48:53;99476.22;;;20.00;100.00
20424;BME280;10371;49.042;8.002;2022-08-18T00:49:54;99481.34;;;20.01;100.00
20424;BME280;10371;49.042;8.002;2022-08-18T00:50:58;99486.63;;;20.01;100.00
20424;BME280;10371;49.042;8.002;2022-08-18T00:51:59;99483.16;;;20.01;100.00
20424;BME280;10371;49.042;8.002;2022-08-18T00:53:05;99480.69;;;19.99;100.00
20424;BME280;10371;49.042;8.002;2022-08-18T00:54:18;99487.63;;;20.00;100.00
20424;BME280;10371;49.042;8.002;2022-08-18T00:55:21;99481.72;;;19.98;100.00
20424;BME280;10371;49.042;8.002;2022-08-18T00:56:25;99484.38;;;19.98;100.00
20424;BME280;10371;49.042;8.002;2022-08-18T00:57:26;99477.63;;;19.96;100.00
20424;BME280;10371;49.042;8.002;2022-08-18T00:58:34;99477.81;;;19.94;100.00
20424;BME280;10371;49.042;8.002;2022-08-18T01:00:39;99477.22;;;19.92;100.00
20424;BME280;10371;49.042;8.002;2022-08-18T01:01:40;99475.19;;;19.94;100.00
20424;BME280;10371;49.042;8.002;2022-08-18T01:02:46;99482.28;;;19.94;100.00
20424;BME280;10371;49.042;8.002;2022-08-18T01:03:49;99475.19;;;19.94;100.00
20424;BME280;10371;49.042;8.002;2022-08-18T01:05:04;99477.81;;;19.94;100.00
20424;BME280;10371;49.042;8.002;2022-08-18T01:06:13;99474.56;;;19.92;100.00
20424;BME280;10371;49.042;8.002;2022-08-18T01:07:31;99473.56;;;19.93;100.00
20424;BME280;10371;49.042;8.002;2022-08-18T01:08:34;99472.91;;;19.91;100.00
20424;BME280;10371;49.042;8.002;2022-08-18T01:09:34;99472.91;;;19.91;100.00
20424;BME280;10371;49.042;8.002;2022-08-18T01:10:35;99475.56;;;19.91;100.00
20424;BME280;10371;49.042;8.002;2022-08-18T01:11:36;99463.56;;;19.89;100.00
20424;BME280;10371;49.042;8.002;2022-08-18T01:12:37;99454.19;;;19.86;100.00
20424;BME280;10371;49.042;8.002;2022-08-18T01:13:39;99463.13;;;19.85;100.00
20424;BME280;10371;49.042;8.002;2022-08-18T01:14:40;99452.75;;;19.83;100.00
20424;BME280;10371;49.042;8.002;2022-08-18T01:15:41;99453.19;;;19.87;100.00
20424;BME280;10371;49.042;8.002;2022-08-18T01:16:41;99456.00;;;19.85;100.00
20424;BME280;10371;49.042;8.002;2022-08-18T01:18:06;99449.75;;;19.86;100.00
20424;BME280;10371;49.042;8.002;2022-08-18T01:19:27;99448.09;;;19.85;100.00
20424;BME280;10371;49.042;8.002;2022-08-18T01:21:04;99441.38;;;19.83;100.00
20424;BME280;10371;49.042;8.002;2022-08-18T01:22:32;99446.47;;;19.84;100.00
20424;BME280;10371;49.042;8.002;2022-08-18T01:23:35;99448.31;;;19.84;100.00
20424;BME280;10371;49.042;8.002;2022-08-18T01:24:36;99439.91;;;19.80;100.00
20424;BME280;10371;49.042;8.002;2022-08-18T01:25:55;99447.84;;;19.80;100.00
20424;BME280;10371;49.042;8.002;2022-08-18T01:27:03;99451.34;;;19.81;100.00
20424;BME280;10371;49.042;8.002;2022-08-18T01:28:04;99447.03;;;19.80;100.00
20424;BME280;10371;49.042;8.002;2022-08-18T01:29:07;99449.69;;;19.80;100.00
20424;BME280;10371;49.042;8.002;2022-08-18T01:30:14;99445.59;;;19.77;100.00
20424;BME280;10371;49.042;8.002;2022-08-18T01:31:33;99451.69;;;19.78;100.00
20424;BME280;10371;49.042;8.002;2022-08-18T01:32:38;99443.16;;;19.76;100.00
20424;BME280;10371;49.042;8.002;2022-08-18T01:33:41;99450.28;;;19.75;100.00
20424;BME280;10371;49.042;8.002;2022-08-18T01:34:42;99444.34;;;19.73;100.00
20424;BME280;10371;49.042;8.002;2022-08-18T01:35:47;99439.06;;;19.73;100.00
20424;BME280;10371;49.042;8.002;2022-08-18T01:36:49;99443.34;;;19.74;100.00
20424;BME280;10371;49.042;8.002;2022-08-18T01:37:52;99432.97;;;19.73;100.00
20424;BME280;10371;49.042;8.002;2022-08-18T01:38:53;99438.25;;;19.73;100.00
20424;BME280;10371;49.042;8.002;2022-08-18T01:39:53;99433.16;;;19.71;100.00
20424;BME280;10371;49.042;8.002;2022-08-18T01:40:53;99428.91;;;19.70;100.00
20424;BME280;10371;49.042;8.002;2022-08-18T01:41:54;99436.00;;;19.70;100.00
20424;BME280;10371;49.042;8.002;2022-08-18T01:42:54;99435.00;;;19.71;100.00
20424;BME280;10371;49.042;8.002;2022-08-18T01:43:59;99431.34;;;19.72;100.00
20424;BME280;10371;49.042;8.002;2022-08-18T01:45:00;99429.88;;;19.69;100.00
20424;BME280;10371;49.042;8.002;2022-08-18T01:46:04;99442.09;;;19.70;100.00
20424;BME280;10371;49.042;8.002;2022-08-18T01:47:05;99436.00;;;19.70;100.00
20424;BME280;10371;49.042;8.002;2022-08-18T01:48:06;99436.00;;;19.70;100.00
20424;BME280;10371;49.042;8.002;2022-08-18T01:49:09;99437.00;;;19.69;100.00
20424;BME280;10371;49.042;8.002;2022-08-18T01:50:10;99441.09;;;19.71;100.00
20424;BME280;10371;49.042;8.002;2022-08-18T01:51:11;99438.66;;;19.70;100.00
20424;BME280;10371;49.042;8.002;2022-08-18T01:52:18;99441.81;;;19.65;100.00
20424;BME280;10371;49.042;8.002;2022-08-18T01:53:19;99446.94;;;19.67;100.00
20424;BME280;10371;49.042;8.002;2022-08-18T01:54:19;99441.03;;;19.64;100.00
20424;BME280;10371;49.042;8.002;2022-08-18T01:55:20;99451.13;;;19.61;100.00
20424;BME280;10371;49.042;8.002;2022-08-18T01:56:21;99463.91;;;19.57;100.00
20424;BME280;10371;49.042;8.002;2022-08-18T01:57:21;99454.91;;;19.52;100.00
20424;BME280;10371;49.042;8.002;2022-08-18T01:58:22;99459.94;;;19.47;100.00
20424;BME280;10371;49.042;8.002;2022-08-18T01:59:27;99458.88;;;19.41;100.00
20424;BME280;10371;49.042;8.002;2022-08-18T02:00:28;99454.00;;;19.38;100.00
20424;BME280;10371;49.042;8.002;2022-08-18T02:01:29;99461.66;;;19.33;100.00
20424;BME280;10371;49.042;8.002;2022-08-18T02:02:31;99455.78;;;19.31;100.00
20424;BME280;10371;49.042;8.002;2022-08-18T02:03:38;99459.84;;;19.33;100.00
20424;BME280;10371;49.042;8.002;2022-08-18T02:04:40;99458.84;;;19.34;100.00
20424;BME280;10371;49.042;8.002;2022-08-18T02:05:44;99458.22;;;19.32;100.00
20424;BME280;10371;49.042;8.002;2022-08-18T02:06:46;99462.03;;;19.30;100.00
20424;BME280;10371;49.042;8.002;2022-08-18T02:07:47;99463.06;;;19.29;100.00
20424;BME280;10371;49.042;8.002;2022-08-18T02:08:47;99464.03;;;19.28;100.00
20424;BME280;10371;49.042;8.002;2022-08-18T02:09:47;99471.78;;;19.29;100.00
20424;BME280;10371;49.042;8.002;2022-08-18T02:10:48;99465.69;;;19.29;100.00
20424;BME280;10371;49.042;8.002;2022-08-18T02:11:48;99459.78;;;19.27;100.00
20424;BME280;10371;49.042;8.002;2022-08-18T02:12:48;99474.81;;;19.26;100.00
20424;BME280;10371;49.042;8.002;2022-08-18T02:13:48;99468.91;;;19.24;100.00
20424;BME280;10371;49.042;8.002;2022-08-18T02:14:49;99470.91;;;19.22;100.00
20424;BME280;10371;49.042;8.002;2022-08-18T02:15:51;99468.47;;;19.20;100.00
20424;BME280;10371;49.042;8.002;2022-08-18T02:16:51;99473.09;;;19.18;100.00
20424;BME280;10371;49.042;8.002;2022-08-18T02:17:51;99468.63;;;19.19;100.00
20424;BME280;10371;49.042;8.002;2022-08-18T02:18:52;99473.09;;;19.18;100.00
20424;BME280;10371;49.042;8.002;2022-08-18T02:19:52;99470.47;;;19.18;100.00
20424;BME280;10371;49.042;8.002;2022-08-18T02:20:54;99473.31;;;19.17;100.00
20424;BME280;10371;49.042;8.002;2022-08-18T02:21:54;99464.94;;;19.13;100.00
20424;BME280;10371;49.042;8.002;2022-08-18T02:22:54;99460.66;;;19.12;100.00
20424;BME280;10371;49.042;8.002;2022-08-18T02:23:57;99460.84;;;19.11;100.00
20424;BME280;10371;49.042;8.002;2022-08-18T02:24:57;99456.41;;;19.11;100.00
20424;BME280;10371;49.042;8.002;2022-08-18T02:26:03;99462.50;;;19.12;100.00
20424;BME280;10371;49.042;8.002;2022-08-18T02:27:05;99452.13;;;19.10;100.00
20424;BME280;10371;49.042;8.002;2022-08-18T02:28:05;99457.22;;;19.12;100.00
20424;BME280;10371;49.042;8.002;2022-08-18T02:29:06;99455.38;;;19.12;100.00
20424;BME280;10371;49.042;8.002;2022-08-18T02:30:08;99458.19;;;19.11;100.00
20424;BME280;10371;49.042;8.002;2022-08-18T02:31:13;99460.84;;;19.11;100.00
20424;BME280;10371;49.042;8.002;2022-08-18T02:32:13;99466.50;;;19.08;100.00
20424;BME280;10371;49.042;8.002;2022-08-18T02:33:14;99461.03;;;19.09;100.00
20424;BME280;10371;49.042;8.002;2022-08-18T02:34:15;99459.38;;;19.08;100.00
20424;BME280;10371;49.042;8.002;2022-08-18T02:35:16;99458.03;;;19.12;100.00
20424;BME280;10371;49.042;8.002;2022-08-18T02:36:16;99462.50;;;19.12;100.00
20424;BME280;10371;49.042;8.002;2022-08-18T02:37:17;99455.22;;;19.14;100.00
20424;BME280;10371;49.042;8.002;2022-08-18T02:38:17;99449.09;;;19.13;100.00
20424;BME280;10371;49.042;8.002;2022-08-18T02:39:18;99445.00;;;19.11;100.00
20424;BME280;10371;49.042;8.002;2022-08-18T02:40:18;99447.47;;;19.12;100.00
20424;BME280;10371;49.042;8.002;2022-08-18T02:41:19;99435.66;;;19.08;100.00
20424;BME280;10371;49.042;8.002;2022-08-18T02:42:19;99444.19;;;19.10;100.00
20424;BME280;10371;49.042;8.002;2022-08-18T02:43:20;99439.13;;;19.09;100.00
20424;BME280;10371;49.042;8.002;2022-08-18T02:44:21;99439.94;;;19.09;100.00
20424;BME280;10371;49.042;8.002;2022-08-18T02:45:21;99443.38;;;19.10;100.00
20424;BME280;10371;49.042;8.002;2022-08-18T02:46:25;99450.28;;;19.11;100.00
20424;BME280;10371;49.042;8.002;2022-08-18T02:47:25;99452.13;;;19.10;100.00
20424;BME280;10371;49.042;8.002;2022-08-18T02:48:26;99449.31;;;19.12;100.00
20424;BME280;10371;49.042;8.002;2022-08-18T02:49:32;99453.38;;;19.14;100.00
20424;BME280;10371;49.042;8.002;2022-08-18T02:50:32;99448.50;;;19.11;100.00
20424;BME280;10371;49.042;8.002;2022-08-18T02:51:33;99448.91;;;19.15;100.00
20424;BME280;10371;49.042;8.002;2022-08-18T02:52:34;99452.38;;;19.15;100.00
20424;BME280;10371;49.042;8.002;2022-08-18T02:53:35;99447.09;;;19.15;100.00
20424;BME280;10371;49.042;8.002;2022-08-18T02:54:37;99448.91;;;19.15;100.00
20424;BME280;10371;49.042;8.002;2022-08-18T02:55:38;99454.19;;;19.15;100.00
20424;BME280;10371;49.042;8.002;2022-08-18T02:56:38;99448.09;;;19.14;100.00
20424;BME280;10371;49.042;8.002;2022-08-18T02:57:43;99450.53;;;19.16;100.00
20424;BME280;10371;49.042;8.002;2022-08-18T02:58:44;99453.56;;;19.13;100.00
20424;BME280;10371;49.042;8.002;2022-08-18T02:59:44;99456.19;;;19.13;100.00
20424;BME280;10371;49.042;8.002;2022-08-18T03:00:45;99443.22;;;19.11;100.00
20424;BME280;10371;49.042;8.002;2022-08-18T03:01:48;99449.09;;;19.13;100.00
20424;BME280;10371;49.042;8.002;2022-08-18T03:02:50;99449.47;;;19.10;100.00
20424;BME280;10371;49.042;8.002;2022-08-18T03:03:53;99443.22;;;19.11;100.00
20424;BME280;10371;49.042;8.002;2022-08-18T03:04:53;99440.56;;;19.11;100.00
20424;BME280;10371;49.042;8.002;2022-08-18T03:05:54;99445.84;;;19.11;100.00
20424;BME280;10371;49.042;8.002;2022-08-18T03:06:55;99441.81;;;19.15;100.00
20424;BME280;10371;49.042;8.002;2022-08-18T03:07:55;99436.53;;;19.15;100.00
20424;BME280;10371;49.042;8.002;2022-08-18T03:08:56;99437.56;;;19.14;100.00
20424;BME280;10371;49.042;8.002;2022-08-18T03:09:56;99434.09;;;19.14;100.00
20424;BME280;10371;49.042;8.002;2022-08-18T03:10:57;99442.84;;;19.14;100.00
20424;BME280;10371;49.042;8.002;2022-08-18T03:11:58;99436.91;;;19.12;100.00
20424;BME280;10371;49.042;8.002;2022-08-18T03:12:58;99430.00;;;19.11;100.00
20424;BME280;10371;49.042;8.002;2022-08-18T03:13:59;99442.03;;;19.14;100.00
20424;BME280;10371;49.042;8.002;2022-08-18T03:15:00;99433.63;;;19.10;100.00
20424;BME280;10371;49.042;8.002;2022-08-18T03:16:01;99432.44;;;19.13;100.00
20424;BME280;10371;49.042;8.002;2022-08-18T03:17:05;99434.28;;;19.12;100.00
20424;BME280;10371;49.042;8.002;2022-08-18T03:18:07;99430.00;;;19.11;100.00
20424;BME280;10371;49.042;8.002;2022-08-18T03:19:08;99420.69;;;19.15;100.00
20424;BME280;10371;49.042;8.002;2022-08-18T03:20:08;99424.34;;;19.14;100.00
20424;BME280;10371;49.042;8.002;2022-08-18T03:21:12;99425.97;;;19.15;100.00
20424;BME280;10371;49.042;8.002;2022-08-18T03:22:13;99422.53;;;19.15;100.00
20424;BME280;10371;49.042;8.002;2022-08-18T03:23:14;99424.34;;;19.14;100.00
20424;BME280;10371;49.042;8.002;2022-08-18T03:24:14;99423.34;;;19.15;100.00
20424;BME280;10371;49.042;8.002;2022-08-18T03:25:16;99417.44;;;19.13;100.00
20424;BME280;10371;49.042;8.002;2022-08-18T03:26:18;99425.16;;;19.15;100.00
20424;BME280;10371;49.042;8.002;2022-08-18T03:27:19;99421.09;;;19.12;100.00
20424;BME280;10371;49.042;8.002;2022-08-18T03:28:19;99413.81;;;19.14;100.00
20424;BME280;10371;49.042;8.002;2022-08-18T03:29:22;99416.63;;;19.13;100.00
20424;BME280;10371;49.042;8.002;2022-08-18T03:30:23;99420.69;;;19.15;100.00
20424;BME280;10371;49.042;8.002;2022-08-18T03:31:24;99420.69;;;19.15;100.00
20424;BME280;10371;49.042;8.002;2022-08-18T03:32:24;99425.97;;;19.15;100.00
20424;BME280;10371;49.042;8.002;2022-08-18T03:33:25;99419.06;;;19.14;100.00
20424;BME280;10371;49.042;8.002;2022-08-18T03:34:25;99422.53;;;19.15;100.00
20424;BME280;10371;49.042;8.002;2022-08-18T03:35:25;99419.06;;;19.14;100.00
20424;BME280;10371;49.042;8.002;2022-08-18T03:36:28;99419.91;;;19.15;100.00
20424;BME280;10371;49.042;8.002;2022-08-18T03:37:30;99416.63;;;19.13;100.00
20424;BME280;10371;49.042;8.002;2022-08-18T03:38:31;99419.06;;;19.14;100.00
20424;BME280;10371;49.042;8.002;2022-08-18T03:39:31;99423.72;;;19.12;100.00
20424;BME280;10371;49.042;8.002;2022-08-18T03:40:32;99430.00;;;19.11;100.00
20424;BME280;10371;49.042;8.002;2022-08-18T03:41:32;99417.81;;;19.10;100.00
20424;BME280;10371;49.042;8.002;2022-08-18T03:42:33;99422.09;;;19.11;100.00
20424;BME280;10371;49.042;8.002;2022-08-18T03:43:34;99421.09;;;19.12;100.00
20424;BME280;10371;49.042;8.002;2022-08-18T03:44:34;99426.75;;;19.09;100.00
20424;BME280;10371;49.042;8.002;2022-08-18T03:45:38;99427.13;;;19.06;100.00
20424;BME280;10371;49.042;8.002;2022-08-18T03:46:43;99426.53;;;19.11;100.00
20424;BME280;10371;49.042;8.002;2022-08-18T03:47:43;99424.91;;;19.10;100.00
20424;BME280;10371;49.042;8.002;2022-08-18T03:48:45;99426.75;;;19.09;100.00
20424;BME280;10371;49.042;8.002;2022-08-18T03:49:46;99421.47;;;19.09;100.00
20424;BME280;10371;49.042;8.002;2022-08-18T03:50:47;99423.28;;;19.09;100.00
20424;BME280;10371;49.042;8.002;2022-08-18T03:51:48;99426.75;;;19.09;100.00
20424;BME280;10371;49.042;8.002;2022-08-18T03:52:50;99421.84;;;19.06;100.00
20424;BME280;10371;49.042;8.002;2022-08-18T03:53:53;99427.50;;;19.03;100.00
20424;BME280;10371;49.042;8.002;2022-08-18T03:54:54;99425.84;;;19.02;100.00
20424;BME280;10371;49.042;8.002;2022-08-18T03:55:54;99428.31;;;19.04;100.00
20424;BME280;10371;49.042;8.002;2022-08-18T03:56:54;99420.56;;;19.02;100.00
20424;BME280;10371;49.042;8.002;2022-08-18T03:58:00;99425.03;;;19.02;100.00
20424;BME280;10371;49.042;8.002;2022-08-18T03:59:10;99434.78;;;19.01;100.00
20424;BME280;10371;49.042;8.002;2022-08-18T04:00:12;99431.50;;;18.99;100.00
20424;BME280;10371;49.042;8.002;2022-08-18T04:01:17;99431.50;;;18.99;100.00
20424;BME280;10371;49.042;8.002;2022-08-18T04:02:18;99429.69;;;19.00;100.00
20424;BME280;10371;49.042;8.002;2022-08-18T04:03:18;99433.16;;;19.00;100.00
20424;BME280;10371;49.042;8.002;2022-08-18T04:04:22;99427.03;;;19.00;100.00
20424;BME280;10371;49.042;8.002;2022-08-18T04:05:22;99437.22;;;19.03;100.00
20424;BME280;10371;49.042;8.002;2022-08-18T04:06:28;99423.59;;;18.99;100.00
20424;BME280;10371;49.042;8.002;2022-08-18T04:07:29;99423.59;;;18.99;100.00
20424;BME280;10371;49.042;8.002;2022-08-18T04:08:29;99432.13;;;19.01;100.00
20424;BME280;10371;49.042;8.002;2022-08-18T04:09:31;99422.59;;;19.00;100.00
20424;BME280;10371;49.042;8.002;2022-08-18T04:10:33;99424.88;;;19.03;100.00
20424;BME280;10371;49.042;8.002;2022-08-18T04:11:35;99423.84;;;19.04;100.00
20424;BME280;10371;49.042;8.002;2022-08-18T04:12:36;99422.41;;;19.02;100.00
20424;BME280;10371;49.042;8.002;2022-08-18T04:13:39;99418.94;;;19.01;100.00
20424;BME280;10371;49.042;8.002;2022-08-18T04:14:40;99427.88;;;19.00;100.00
20424;BME280;10371;49.042;8.002;2022-08-18T04:15:41;99420.31;;;18.97;100.00
20424;BME280;10371;49.042;8.002;2022-08-18T04:16:42;99420.78;;;19.01;100.00
20424;BME280;10371;49.042;8.002;2022-08-18T04:17:42;99428.50;;;19.02;100.00
20424;BME280;10371;49.042;8.002;2022-08-18T04:18:45;99425.25;;;19.00;100.00
20424;BME280;10371;49.042;8.002;2022-08-18T04:19:45;99433.16;;;19.00;100.00
20424;BME280;10371;49.042;8.002;2022-08-18T04:20:45;99432.53;;;18.98;100.00
20424;BME280;10371;49.042;8.002;2022-08-18T04:21:50;99432.53;;;18.98;100.00
20424;BME280;10371;49.042;8.002;2022-08-18T04:22:51;99434.53;;;18.96;100.00
20424;BME280;10371;49.042;8.002;2022-08-18T04:23:51;99441.25;;;18.98;100.00
20424;BME280;10371;49.042;8.002;2022-08-18T04:24:52;99435.97;;;18.98;100.00
20424;BME280;10371;49.042;8.002;2022-08-18T04:25:57;99438.44;;;19.00;100.00
20424;BME280;10371;49.042;8.002;2022-08-18T04:26:59;99440.88;;;19.02;100.00
20424;BME280;10371;49.042;8.002;2022-08-18T04:28:01;99439.25;;;19.01;100.00
20424;BME280;10371;49.042;8.002;2022-08-18T04:29:06;99443.34;;;19.03;100.00
20424;BME280;10371;49.042;8.002;2022-08-18T04:30:07;99440.69;;;19.03;100.00
20424;BME280;10371;49.042;8.002;2022-08-18T04:31:13;99437.41;;;19.01;100.00
20424;BME280;10371;49.042;8.002;2022-08-18T04:32:14;99442.50;;;19.03;100.00
20424;BME280;10371;49.042;8.002;2022-08-18T04:33:14;99445.34;;;19.01;100.00
20424;BME280;10371;49.042;8.002;2022-08-18T04:34:16;99452.22;;;19.02;100.00
20424;BME280;10371;49.042;8.002;2022-08-18T04:35:16;99452.22;;;19.02;100.00
20424;BME280;10371;49.042;8.002;2022-08-18T04:36:17;99444.91;;;18.97;100.00
20424;BME280;10371;49.042;8.002;2022-08-18T04:37:17;99453.41;;;19.00;100.00
20424;BME280;10371;49.042;8.002;2022-08-18T04:38:18;99457.50;;;19.02;100.00
20424;BME280;10371;49.042;8.002;2022-08-18T04:39:19;99461.97;;;19.02;100.00
20424;BME280;10371;49.042;8.002;2022-08-18T04:40:20;99468.06;;;19.02;100.00
20424;BME280;10371;49.042;8.002;2022-08-18T04:41:21;99468.88;;;19.03;100.00
20424;BME280;10371;49.042;8.002;2022-08-18T04:42:25;99469.72;;;19.03;100.00
20424;BME280;10371;49.042;8.002;2022-08-18T04:43:25;99465.63;;;19.01;100.00
20424;BME280;10371;49.042;8.002;2022-08-18T04:44:25;99459.97;;;19.04;100.00
20424;BME280;10371;49.042;8.002;2022-08-18T04:45:26;99461.59;;;19.05;100.00
20424;BME280;10371;49.042;8.002;2022-08-18T04:46:27;99464.66;;;19.08;100.00
20424;BME280;10371;49.042;8.002;2022-08-18T04:47:27;99468.53;;;19.06;100.00
20424;BME280;10371;49.042;8.002;2022-08-18T04:48:37;99470.16;;;19.07;100.00
20424;BME280;10371;49.042;8.002;2022-08-18T04:49:38;99460.97;;;19.03;100.00
20424;BME280;10371;49.042;8.002;2022-08-18T04:50:38;99476.78;;;19.03;100.00
20424;BME280;10371;49.042;8.002;2022-08-18T04:51:42;99470.69;;;19.02;100.00
20424;BME280;10371;49.042;8.002;2022-08-18T04:52:43;99480.44;;;19.02;100.00
20424;BME280;10371;49.042;8.002;2022-08-18T04:54:02;99486.91;;;18.99;100.00
20424;BME280;10371;49.042;8.002;2022-08-18T04:55:03;99484.28;;;18.99;100.00
20424;BME280;10371;49.042;8.002;2022-08-18T04:56:03;99485.06;;;19.00;100.00
20424;BME280;10371;49.042;8.002;2022-08-18T04:57:12;99488.34;;;19.02;100.00
20424;BME280;10371;49.042;8.002;2022-08-18T04:58:13;99488.56;;;19.00;100.00
20424;BME280;10371;49.042;8.002;2022-08-18T04:59:15;99488.56;;;19.00;100.00
20424;BME280;10371;49.042;8.002;2022-08-18T05:00:15;99490.19;;;19.01;100.00
20424;BME280;10371;49.042;8.002;2022-08-18T05:01:17;99490.19;;;19.01;100.00
20424;BME280;10371;49.042;8.002;2022-08-18T05:02:19;99493.47;;;19.03;100.00
20424;BME280;10371;49.042;8.002;2022-08-18T05:03:19;99484.53;;;19.04;100.00
20424;BME280;10371;49.042;8.002;2022-08-18T05:04:20;99492.88;;;19.08;100.00
20424;BME280;10371;49.042;8.002;2022-08-18T05:05:21;99485.78;;;19.08;100.00
20424;BME280;10371;49.042;8.002;2022-08-18T05:06:24;99485.16;;;19.06;100.00
20424;BME280;10371;49.042;8.002;2022-08-18T05:07:25;99480.28;;;19.03;100.00
20424;BME280;10371;49.042;8.002;2022-08-18T05:08:25;99490.81;;;19.03;100.00
20424;BME280;10371;49.042;8.002;2022-08-18T05:09:26;99496.47;;;19.00;100.00
20424;BME280;10371;49.042;8.002;2022-08-18T05:10:27;99493.19;;;18.98;100.00
20424;BME280;10371;49.042;8.002;2022-08-18T05:11:28;99498.47;;;18.98;100.00
20424;BME280;10371;49.042;8.002;2022-08-18T05:12:30;99493.56;;;18.95;100.00
20424;BME280;10371;49.042;8.002;2022-08-18T05:13:30;99505.75;;;18.96;100.00
20424;BME280;10371;49.042;8.002;2022-08-18T05:14:31;99500.84;;;18.93;100.00
20424;BME280;10371;49.042;8.002;2022-08-18T05:15:32;99495.56;;;18.93;100.00
20424;BME280;10371;49.042;8.002;2022-08-18T05:16:34;99501.50;;;18.95;100.00
20424;BME280;10371;49.042;8.002;2022-08-18T05:17:36;99497.41;;;18.92;100.00
20424;BME280;10371;49.042;8.002;2022-08-18T05:18:38;99500.84;;;18.93;100.00
20424;BME280;10371;49.042;8.002;2022-08-18T05:19:39;99495.41;;;18.94;100.00
20424;BME280;10371;49.042;8.002;2022-08-18T05:20:40;99487.66;;;18.93;100.00
20424;BME280;10371;49.042;8.002;2022-08-18T05:21:42;99490.28;;;18.93;100.00
20424;BME280;10371;49.042;8.002;2022-08-18T05:22:42;99497.56;;;18.91;100.00
20424;BME280;10371;49.042;8.002;2022-08-18T05:23:44;99493.94;;;18.92;100.00
20424;BME280;10371;49.042;8.002;2022-08-18T05:24:45;99495.56;;;18.93;100.00
20424;BME280;10371;49.042;8.002;2022-08-18T05:25:46;99494.75;;;18.92;100.00
20424;BME280;10371;49.042;8.002;2022-08-18T05:26:47;99495.56;;;18.93;100.00
20424;BME280;10371;49.042;8.002;2022-08-18T05:27:48;99493.09;;;18.91;100.00